createdAt,value
2023-03-01T00:02:23.785Z,68.80
2023-03-01T00:04:50.577Z,70.03
2023-03-01T00:07:17.668Z,66.88
2023-03-01T00:09:46.883Z,69.15
2023-03-01T00:12:13.988Z,68.57
2023-03-01T00:14:40.931Z,67.80
2023-03-01T00:17:08.196Z,70.10
2023-03-01T00:19:35.246Z,67.72
2023-03-01T00:22:02.322Z,70.38
2023-03-01T00:24:29.045Z,67.03
2023-03-01T00:26:58.860Z,72.45
2023-03-01T00:29:25.681Z,74.57
2023-03-01T00:31:52.851Z,73.28
2023-03-01T00:34:19.706Z,73.68
2023-03-01T00:36:46.796Z,72.30
2023-03-01T00:39:15.052Z,74.15
2023-03-01T00:41:42.768Z,74.75
2023-03-01T00:44:09.818Z,75.68
2023-03-01T00:46:36.994Z,75.10
2023-03-01T00:49:05.511Z,75.68
2023-03-01T00:51:32.940Z,76.28
2023-03-01T00:54:01.536Z,74.65
2023-03-01T00:56:29.072Z,74.38
2023-03-01T00:58:55.909Z,79.75
2023-03-01T01:01:28.176Z,80.32
2023-03-01T01:03:56.850Z,80.82
2023-03-01T01:06:29.201Z,83.32
2023-03-01T01:08:56.269Z,83.15
2023-03-01T01:11:24.566Z,89.55
2023-03-01T01:13:51.501Z,87.40
2023-03-01T01:16:19.160Z,89.75
2023-03-01T01:18:46.121Z,86.68
2023-03-01T01:21:15.150Z,88.68
2023-03-01T01:23:42.104Z,87.47
2023-03-01T01:26:11.343Z,86.43
2023-03-01T01:28:38.251Z,88.25
2023-03-01T01:31:06.060Z,89.28
2023-03-01T01:33:32.954Z,85.80
2023-03-01T01:36:00.000Z,84.72
2023-03-01T01:38:26.832Z,85.50
2023-03-01T01:40:53.934Z,87.63
2023-03-01T01:43:36.448Z,84.90
2023-03-01T01:46:23.894Z,86.35
2023-03-01T01:48:59.800Z,86.50
2023-03-01T01:51:30.134Z,88.65
2023-03-01T01:53:59.626Z,81.95
2023-03-01T01:56:26.754Z,86.70
2023-03-01T01:58:53.695Z,85.82
2023-03-01T02:01:20.966Z,86.25
2023-03-01T02:03:47.795Z,85.07
2023-03-01T02:06:37.197Z,87.32
2023-03-01T02:09:08.216Z,83.32
2023-03-01T02:11:35.229Z,84.03
2023-03-01T02:14:02.044Z,89.22
2023-03-01T02:16:30.432Z,85.95
2023-03-01T02:18:57.649Z,88.45
2023-03-01T02:21:31.087Z,89.25
2023-03-01T02:23:59.517Z,88.85
2023-03-01T02:26:41.332Z,86.25
2023-03-01T02:29:08.075Z,87.05
2023-03-01T02:31:44.500Z,87.22
2023-03-01T02:34:22.375Z,89.47
2023-03-01T02:37:14.080Z,91.63
2023-03-01T02:39:43.432Z,91.15
2023-03-01T02:42:15.651Z,90.00
2023-03-01T02:44:42.393Z,87.80
2023-03-01T02:47:09.438Z,85.70
2023-03-01T02:49:37.239Z,87.85
2023-03-01T02:52:42.952Z,87.85
2023-03-01T02:55:11.676Z,89.35
2023-03-01T02:57:40.453Z,89.25
2023-03-01T03:00:41.197Z,87.25
2023-03-01T03:03:08.422Z,88.25
2023-03-01T03:05:35.317Z,86.85
2023-03-01T03:08:03.210Z,85.82
2023-03-01T03:10:35.598Z,81.90
2023-03-01T03:13:04.620Z,88.05
2023-03-01T03:15:31.567Z,86.63
2023-03-01T03:17:59.124Z,86.97
2023-03-01T03:20:27.118Z,87.00
2023-03-01T03:22:55.031Z,83.35
2023-03-01T03:25:22.097Z,85.43
2023-03-01T03:27:49.848Z,82.65
2023-03-01T03:30:19.419Z,82.13
2023-03-01T03:32:53.288Z,81.03
2023-03-01T03:35:33.532Z,83.00
2023-03-01T03:38:04.741Z,81.47
2023-03-01T03:40:38.861Z,82.57
2023-03-01T03:43:24.537Z,80.43
2023-03-01T03:45:51.972Z,83.50
2023-03-01T03:48:19.162Z,80.68
2023-03-01T03:50:50.837Z,81.85
2023-03-01T03:53:18.017Z,81.38
2023-03-01T03:55:45.510Z,81.20
2023-03-01T03:58:12.563Z,80.47
2023-03-01T04:00:44.281Z,83.13
2023-03-01T04:03:12.410Z,78.03
2023-03-01T04:05:39.664Z,79.72
2023-03-01T04:08:08.273Z,81.10
2023-03-01T04:10:37.302Z,78.18
2023-03-01T04:13:05.359Z,80.32
2023-03-01T04:15:33.386Z,82.57
2023-03-01T04:18:00.692Z,77.55
2023-03-01T04:20:29.483Z,79.13
2023-03-01T04:23:13.948Z,82.30
2023-03-01T04:25:42.079Z,80.28
2023-03-01T04:28:10.084Z,79.15
2023-03-01T04:30:37.652Z,81.68
2023-03-01T04:33:08.805Z,79.43
2023-03-01T04:35:35.952Z,77.05
2023-03-01T04:38:03.763Z,81.85
2023-03-01T04:40:30.514Z,79.88
2023-03-01T04:42:57.586Z,80.75
2023-03-01T04:45:24.484Z,82.70
2023-03-01T04:47:53.179Z,80.45
2023-03-01T04:50:24.437Z,83.63
2023-03-01T04:52:51.542Z,78.95
2023-03-01T04:55:18.571Z,81.10
2023-03-01T04:57:45.687Z,81.47
2023-03-01T05:00:21.093Z,80.28
2023-03-01T05:02:55.404Z,81.05
2023-03-01T05:05:31.379Z,82.95
2023-03-01T05:08:03.037Z,80.82
2023-03-01T05:10:30.591Z,81.90
2023-03-01T05:13:01.009Z,80.00
2023-03-01T05:15:28.839Z,82.90
2023-03-01T05:17:58.039Z,80.45
2023-03-01T05:20:24.994Z,82.28
2023-03-01T05:22:52.860Z,82.45
2023-03-01T05:25:19.617Z,83.22
2023-03-01T05:27:46.715Z,84.30
2023-03-01T05:30:17.092Z,82.97
2023-03-01T05:32:46.607Z,80.75
2023-03-01T05:35:16.909Z,82.53
2023-03-01T05:37:44.960Z,82.00
2023-03-01T05:40:16.596Z,82.97
2023-03-01T05:42:48.500Z,82.80
2023-03-01T05:45:15.927Z,82.13
2023-03-01T05:47:44.743Z,85.75
2023-03-01T05:50:19.961Z,83.68
2023-03-01T05:52:51.308Z,83.78
2023-03-01T05:55:18.842Z,83.30
2023-03-01T05:57:46.000Z,83.70
2023-03-01T06:00:13.750Z,86.28
2023-03-01T06:02:41.006Z,82.65
2023-03-01T06:05:09.380Z,86.60
2023-03-01T06:07:36.674Z,84.95
2023-03-01T06:10:04.665Z,89.47
2023-03-01T06:12:33.811Z,87.85
2023-03-01T06:15:00.995Z,83.00
2023-03-01T06:17:30.508Z,85.38
2023-03-01T06:19:57.420Z,84.95
2023-03-01T06:22:24.581Z,86.78
2023-03-01T06:24:51.361Z,86.38
2023-03-01T06:27:18.442Z,86.88
2023-03-01T06:29:45.639Z,89.80
2023-03-01T06:32:12.773Z,86.30
2023-03-01T06:34:39.561Z,84.57
2023-03-01T06:37:07.547Z,91.18
2023-03-01T06:39:34.369Z,89.13
2023-03-01T06:42:01.512Z,89.40
2023-03-01T06:44:28.455Z,91.22
2023-03-01T06:46:55.596Z,89.80
2023-03-01T06:49:22.587Z,91.03
2023-03-01T06:51:49.689Z,94.55
2023-03-01T06:54:16.470Z,94.00
2023-03-01T06:56:43.520Z,91.72
2023-03-01T06:59:10.328Z,94.00
2023-03-01T07:01:37.410Z,93.53
2023-03-01T07:04:04.361Z,96.72
2023-03-01T07:06:31.817Z,94.93
2023-03-01T07:08:58.769Z,95.18
2023-03-01T07:11:25.894Z,94.70
2023-03-01T07:13:52.673Z,93.88
2023-03-01T07:16:21.389Z,95.43
2023-03-01T07:18:48.160Z,96.55
2023-03-01T07:21:15.793Z,99.32
2023-03-01T07:23:42.513Z,93.68
2023-03-01T07:26:09.538Z,95.15
2023-03-01T07:28:40.148Z,94.82
2023-03-01T07:31:07.268Z,91.60
2023-03-01T07:33:34.022Z,93.55
2023-03-01T07:36:02.402Z,91.80
2023-03-01T07:38:29.729Z,92.75
2023-03-01T07:41:03.825Z,92.22
2023-03-01T07:43:30.830Z,91.30
2023-03-01T07:46:01.928Z,93.70
2023-03-01T07:48:29.284Z,93.07
2023-03-01T07:50:59.795Z,88.97
2023-03-01T07:53:26.550Z,89.15
2023-03-01T07:56:06.637Z,88.05
2023-03-01T07:58:35.837Z,84.07
2023-03-01T08:01:04.124Z,87.13
2023-03-01T08:03:30.852Z,85.20
2023-03-01T08:06:00.519Z,85.80
2023-03-01T08:08:27.369Z,81.68
2023-03-01T08:10:57.635Z,82.80
2023-03-01T08:13:24.379Z,81.07
2023-03-01T08:15:51.459Z,83.85
2023-03-01T08:18:19.027Z,80.32
2023-03-01T08:20:46.388Z,79.15
2023-03-01T08:23:13.277Z,81.13
2023-03-01T08:25:40.644Z,79.05
2023-03-01T08:28:07.412Z,76.30
2023-03-01T08:30:35.181Z,76.82
2023-03-01T08:33:02.039Z,77.28
2023-03-01T08:35:29.144Z,72.07
2023-03-01T08:37:55.926Z,76.32
2023-03-01T08:40:23.098Z,75.60
2023-03-01T08:42:49.929Z,77.07
2023-03-01T08:45:19.248Z,72.20
2023-03-01T08:47:46.294Z,72.25
2023-03-01T08:50:13.407Z,70.57
2023-03-01T08:52:40.234Z,65.70
2023-03-01T08:55:08.131Z,64.60
2023-03-01T08:57:34.934Z,65.03
2023-03-01T09:00:01.992Z,65.70
2023-03-01T09:02:29.027Z,63.15
2023-03-01T09:04:56.152Z,62.72
2023-03-01T09:07:22.893Z,63.70
2023-03-01T09:09:49.988Z,61.15
2023-03-01T09:12:16.771Z,60.83
2023-03-01T09:14:43.886Z,58.33
2023-03-01T09:17:10.763Z,59.42
2023-03-01T09:19:38.153Z,59.90
2023-03-01T09:22:05.679Z,57.58
2023-03-01T09:24:32.748Z,59.10
2023-03-01T09:26:59.503Z,57.58
2023-03-01T09:29:26.990Z,53.60
2023-03-01T09:31:56.265Z,54.65
2023-03-01T09:34:24.478Z,56.88
2023-03-01T09:36:52.148Z,52.97
2023-03-01T09:39:19.262Z,52.65
2023-03-01T09:41:58.808Z,51.40
2023-03-01T09:44:32.137Z,50.17
2023-03-01T09:46:59.252Z,50.63
2023-03-01T09:49:28.252Z,50.05
2023-03-01T09:52:15.054Z,49.25
2023-03-01T09:54:42.109Z,50.10
2023-03-01T09:57:27.674Z,45.28
2023-03-01T10:00:17.063Z,44.75
2023-03-01T10:02:50.885Z,46.00
2023-03-01T10:06:07.480Z,45.63
2023-03-01T10:08:49.574Z,41.88
2023-03-01T10:11:28.343Z,40.97
2023-03-01T10:14:07.020Z,43.60
2023-03-01T10:16:40.180Z,41.22
2023-03-01T10:19:07.678Z,40.50
2023-03-01T10:21:37.207Z,41.38
2023-03-01T10:24:13.193Z,39.80
2023-03-01T10:26:57.700Z,39.13
2023-03-01T10:29:31.949Z,38.05
2023-03-01T10:31:59.019Z,37.15
2023-03-01T10:34:31.105Z,37.25
2023-03-01T10:37:02.049Z,36.03
2023-03-01T10:39:28.919Z,34.75
2023-03-01T10:42:06.649Z,32.63
2023-03-01T10:44:48.405Z,33.78
2023-03-01T10:47:24.353Z,31.23
2023-03-01T10:50:05.675Z,31.88
2023-03-01T10:52:33.920Z,30.92
2023-03-01T10:55:03.541Z,29.45
2023-03-01T10:57:33.305Z,28.75
2023-03-01T11:00:23.377Z,27.90
2023-03-01T11:02:59.539Z,28.70
2023-03-01T11:05:26.709Z,28.25
2023-03-01T11:07:56.094Z,26.75
2023-03-01T11:10:41.153Z,27.10
2023-03-01T11:13:18.546Z,28.52
2023-03-01T11:16:00.033Z,27.10
2023-03-01T11:18:44.339Z,26.38
2023-03-01T11:23:39.971Z,26.35
2023-03-01T11:26:10.719Z,26.50
2023-03-01T11:28:38.978Z,26.35
2023-03-01T11:31:12.672Z,25.50
2023-03-01T11:33:58.868Z,25.40
2023-03-01T11:41:37.617Z,24.05
2023-03-01T11:44:15.343Z,24.20
2023-03-01T11:47:09.809Z,24.73
2023-03-01T11:49:58.849Z,24.38
2023-03-01T11:52:31.436Z,25.67
2023-03-01T11:55:30.060Z,23.77
2023-03-01T11:58:47.617Z,22.50
2023-03-01T12:01:59.532Z,23.25
2023-03-01T12:04:35.179Z,22.50
2023-03-01T12:07:07.065Z,22.30
2023-03-01T12:09:45.951Z,21.95
2023-03-01T12:12:31.787Z,22.42
2023-03-01T12:15:21.880Z,21.40
2023-03-01T12:18:10.955Z,21.58
2023-03-01T12:21:03.153Z,23.10
2023-03-01T12:23:45.440Z,20.92
2023-03-01T12:26:29.085Z,20.98
2023-03-01T12:29:01.193Z,21.40
2023-03-01T12:31:37.333Z,22.33
2023-03-01T12:34:22.772Z,23.30
2023-03-01T12:36:58.719Z,21.30
2023-03-01T12:39:47.223Z,20.40
2023-03-01T12:42:32.864Z,22.45
2023-03-01T12:45:18.211Z,21.15
2023-03-01T12:48:06.382Z,22.67
2023-03-01T12:50:44.813Z,20.35
2023-03-01T12:53:32.305Z,22.02
2023-03-01T12:56:07.346Z,22.60
2023-03-01T12:58:48.820Z,21.85
2023-03-01T13:01:38.343Z,21.30
2023-03-01T13:04:19.331Z,22.02
2023-03-01T13:06:57.268Z,21.52
2023-03-01T13:09:25.740Z,22.80
2023-03-01T13:11:52.821Z,21.05
2023-03-01T13:14:44.644Z,21.17
2023-03-01T13:17:31.042Z,20.52
2023-03-01T13:19:59.091Z,21.23
2023-03-01T13:22:29.094Z,20.42
2023-03-01T13:25:03.553Z,20.52
2023-03-01T13:27:30.725Z,21.27
2023-03-01T13:30:02.026Z,22.17
2023-03-01T13:32:43.140Z,20.85
2023-03-01T13:35:17.978Z,20.40
2023-03-01T13:37:45.429Z,21.15
2023-03-01T13:40:19.653Z,20.17
2023-03-01T13:43:04.577Z,20.10
2023-03-01T13:45:42.272Z,18.50
2023-03-01T13:48:17.675Z,21.05
2023-03-01T13:50:54.003Z,19.35
2023-03-01T13:53:23.865Z,19.40
2023-03-01T13:55:54.829Z,20.85
2023-03-01T13:58:26.797Z,18.63
2023-03-01T14:01:05.459Z,21.05
2023-03-01T14:03:34.158Z,19.67
2023-03-01T14:06:14.846Z,18.65
2023-03-01T14:08:43.166Z,19.00
2023-03-01T14:11:44.122Z,18.67
2023-03-01T14:14:29.658Z,16.90
2023-03-01T14:17:15.025Z,18.15
2023-03-01T14:19:45.910Z,17.42
2023-03-01T14:22:23.363Z,18.10
2023-03-01T14:24:59.170Z,17.40
2023-03-01T14:27:44.349Z,17.15
2023-03-01T14:30:33.779Z,17.30
2023-03-01T14:33:02.287Z,18.13
2023-03-01T14:35:34.921Z,19.08
2023-03-01T14:38:02.018Z,16.95
2023-03-01T14:40:33.242Z,17.52
2023-03-01T14:43:01.224Z,16.80
2023-03-01T14:45:29.393Z,16.35
2023-03-01T14:47:57.105Z,16.05
2023-03-01T14:50:34.828Z,16.02
2023-03-01T14:53:05.293Z,17.52
2023-03-01T14:55:33.525Z,15.95
2023-03-01T14:58:03.151Z,16.55
2023-03-01T15:00:31.456Z,16.05
2023-03-01T15:03:01.606Z,15.70
2023-03-01T15:05:32.945Z,15.25
2023-03-01T15:08:01.255Z,16.17
2023-03-01T15:10:31.545Z,15.55
2023-03-01T15:13:13.871Z,14.63
2023-03-01T15:15:47.704Z,13.88
2023-03-01T15:18:16.212Z,13.93
2023-03-01T15:20:43.619Z,15.10
2023-03-01T15:23:27.969Z,15.05
2023-03-01T15:25:58.531Z,14.50
2023-03-01T15:28:30.696Z,14.20
2023-03-01T15:31:20.236Z,13.98
2023-03-01T15:33:48.382Z,14.55
2023-03-01T15:36:31.250Z,14.98
2023-03-01T15:38:59.264Z,15.05
2023-03-01T15:41:39.670Z,14.55
2023-03-01T15:44:29.988Z,13.75
2023-03-01T15:47:02.475Z,14.45
2023-03-01T15:49:54.471Z,13.10
2023-03-01T15:52:32.344Z,14.35
2023-03-01T15:55:03.493Z,14.90
2023-03-01T15:57:30.771Z,14.20
2023-03-01T15:59:57.581Z,14.65
2023-03-01T16:02:25.325Z,14.77
2023-03-01T16:04:52.272Z,13.45
2023-03-01T16:07:19.376Z,14.60
2023-03-01T16:09:46.265Z,13.55
2023-03-01T16:12:16.839Z,14.20
2023-03-01T16:14:43.749Z,13.88
2023-03-01T16:17:11.324Z,13.55
2023-03-01T16:19:39.014Z,13.02
2023-03-01T16:22:06.093Z,13.82
2023-03-01T16:24:32.882Z,13.35
2023-03-01T16:27:00.058Z,14.35
2023-03-01T16:29:27.139Z,13.50
2023-03-01T16:31:54.415Z,13.13
2023-03-01T16:34:22.883Z,13.57
2023-03-01T16:36:50.169Z,13.05
2023-03-01T16:39:17.633Z,13.98
2023-03-01T16:41:44.894Z,13.75
2023-03-01T16:44:11.651Z,13.75
2023-03-01T16:46:38.811Z,13.63
2023-03-01T16:49:05.604Z,14.32
2023-03-01T16:51:35.660Z,14.18
2023-03-01T16:54:02.988Z,14.75
2023-03-01T16:56:31.275Z,13.95
2023-03-01T16:58:58.257Z,13.27
2023-03-01T17:01:26.887Z,14.10
2023-03-01T17:03:53.737Z,13.23
2023-03-01T17:06:21.646Z,15.05
2023-03-01T17:08:48.460Z,14.82
2023-03-01T17:11:20.031Z,15.13
2023-03-01T17:13:47.073Z,14.98
2023-03-01T17:16:15.778Z,15.35
2023-03-01T17:18:42.785Z,16.30
2023-03-01T17:21:10.174Z,14.85
2023-03-01T17:23:37.812Z,14.88
2023-03-01T17:26:05.105Z,14.93
2023-03-01T17:28:32.794Z,16.77
2023-03-01T17:31:00.776Z,15.95
2023-03-01T17:33:27.698Z,16.27
2023-03-01T17:35:54.970Z,16.73
2023-03-01T17:39:36.623Z,16.00
2023-03-01T17:42:05.233Z,15.80
2023-03-01T17:44:34.573Z,16.38
2023-03-01T17:47:02.952Z,16.27
2023-03-01T17:49:30.151Z,16.42
2023-03-01T17:51:57.589Z,17.75
2023-03-01T17:54:24.711Z,16.70
2023-03-01T17:56:52.172Z,16.60
2023-03-01T17:59:19.384Z,16.70
2023-03-01T18:01:46.823Z,16.67
2023-03-01T18:04:13.862Z,17.42
2023-03-01T18:06:41.152Z,17.02
2023-03-01T18:09:08.253Z,18.00
2023-03-01T18:11:35.626Z,18.88
2023-03-01T18:14:02.796Z,20.23
2023-03-01T18:16:32.532Z,18.50
2023-03-01T18:19:00.203Z,19.02
2023-03-01T18:21:41.062Z,19.45
2023-03-01T18:24:07.904Z,18.40
2023-03-01T18:26:35.678Z,19.73
2023-03-01T18:29:04.888Z,18.25
2023-03-01T18:31:33.574Z,19.77
2023-03-01T18:34:03.541Z,19.60
2023-03-01T18:36:32.657Z,21.42
2023-03-01T18:38:59.731Z,22.10
2023-03-01T18:41:27.652Z,20.38
2023-03-01T18:43:54.722Z,21.20
2023-03-01T18:46:22.221Z,21.77
2023-03-01T18:48:49.071Z,21.52
2023-03-01T18:51:18.351Z,22.27
2023-03-01T18:53:45.296Z,22.15
2023-03-01T18:56:12.523Z,23.05
2023-03-01T18:58:39.614Z,22.10
2023-03-01T19:01:08.429Z,21.88
2023-03-01T19:03:35.589Z,23.50
2023-03-01T19:06:02.804Z,27.40
2023-03-01T19:08:31.469Z,28.50
2023-03-01T19:11:02.176Z,28.80
2023-03-01T19:13:29.014Z,29.30
2023-03-01T19:16:23.938Z,32.97
2023-03-01T19:18:51.702Z,31.52
2023-03-01T19:21:20.258Z,33.80
2023-03-01T19:23:48.629Z,36.88
2023-03-01T19:26:16.958Z,36.10
2023-03-01T19:28:44.336Z,37.17
2023-03-01T19:31:16.622Z,37.00
2023-03-01T19:33:43.525Z,38.53
2023-03-01T19:36:11.713Z,38.80
2023-03-01T19:38:39.188Z,40.35
2023-03-01T19:41:07.374Z,39.03
2023-03-01T19:43:34.268Z,37.72
2023-03-01T19:46:01.730Z,37.53
2023-03-01T19:48:28.859Z,39.00
2023-03-01T19:50:56.252Z,37.45
2023-03-01T19:53:23.257Z,39.35
2023-03-01T19:55:53.145Z,37.08
2023-03-01T19:58:20.136Z,37.28
2023-03-01T20:00:47.480Z,38.65
2023-03-01T20:03:14.423Z,40.58
2023-03-01T20:05:42.965Z,39.63
2023-03-01T20:08:09.800Z,39.08
2023-03-01T20:10:36.884Z,42.30
2023-03-01T20:13:03.934Z,40.22
2023-03-01T20:15:31.206Z,41.22
2023-03-01T20:17:58.056Z,41.50
2023-03-01T20:20:25.227Z,41.95
2023-03-01T20:22:52.178Z,43.53
2023-03-01T20:25:19.342Z,43.33
2023-03-01T20:27:47.527Z,41.80
2023-03-01T20:30:15.421Z,45.42
2023-03-01T20:32:42.455Z,46.13
2023-03-01T20:35:10.335Z,45.83
2023-03-01T20:37:37.491Z,46.47
2023-03-01T20:40:05.274Z,47.33
2023-03-01T20:42:32.154Z,47.33
2023-03-01T20:44:59.283Z,46.40
2023-03-01T20:47:26.321Z,48.28
2023-03-01T20:49:53.805Z,47.00
2023-03-01T20:52:20.640Z,47.55
2023-03-01T20:54:47.776Z,49.38
2023-03-01T20:57:14.765Z,48.65
2023-03-01T20:59:42.168Z,50.33
2023-03-01T21:02:10.766Z,50.67
2023-03-01T21:04:37.961Z,50.78
2023-03-01T21:07:04.737Z,50.05
2023-03-01T21:09:31.861Z,49.60
2023-03-01T21:11:58.728Z,50.63
2023-03-01T21:14:25.857Z,48.72
2023-03-01T21:16:52.693Z,46.92
2023-03-01T21:19:22.468Z,46.90
2023-03-01T21:21:50.398Z,46.03
2023-03-01T21:27:53.608Z,44.95
2023-03-01T21:30:32.066Z,47.63
2023-03-01T21:32:59.967Z,48.58
2023-03-01T21:35:27.230Z,48.60
2023-03-01T21:37:54.028Z,47.95
2023-03-01T21:40:21.112Z,48.13
2023-03-01T21:42:49.677Z,47.80
2023-03-01T21:45:16.918Z,50.22
2023-03-01T21:47:43.721Z,47.05
2023-03-01T21:50:11.538Z,48.63
2023-03-01T21:52:38.265Z,50.72
2023-03-01T21:55:05.742Z,49.75
2023-03-01T21:57:32.626Z,50.58
2023-03-01T21:59:59.689Z,50.50
2023-03-01T22:02:26.560Z,52.60
2023-03-01T22:05:11.995Z,52.40
2023-03-01T22:07:39.303Z,53.20
2023-03-01T22:10:07.599Z,56.72
2023-03-01T22:12:34.706Z,53.58
2023-03-01T22:15:01.469Z,57.25
2023-03-01T22:17:28.832Z,57.67
2023-03-01T22:19:55.550Z,58.13
2023-03-01T22:22:22.601Z,61.53
2023-03-01T22:24:49.355Z,58.88
2023-03-01T22:27:16.459Z,62.30
2023-03-01T22:29:43.453Z,63.97
2023-03-01T22:32:10.659Z,61.72
2023-03-01T22:34:37.594Z,62.15
2023-03-01T22:37:04.679Z,63.97
2023-03-01T22:39:31.539Z,65.68
2023-03-01T22:41:58.568Z,68.47
2023-03-01T22:44:25.369Z,66.40
2023-03-01T22:46:52.935Z,68.68
2023-03-01T22:49:19.980Z,73.72
2023-03-01T22:51:50.025Z,72.95
2023-03-01T22:54:17.323Z,73.68
2023-03-01T22:56:44.465Z,72.03
2023-03-01T22:59:13.461Z,75.70
2023-03-01T23:01:41.864Z,74.40
2023-03-01T23:04:08.677Z,74.70
2023-03-01T23:06:50.637Z,76.28
2023-03-01T23:09:18.413Z,79.07
2023-03-01T23:11:45.583Z,78.20
2023-03-01T23:14:12.415Z,79.65
2023-03-01T23:16:39.750Z,83.07
2023-03-01T23:19:06.627Z,84.55
2023-03-01T23:21:33.712Z,87.70
2023-03-01T23:24:00.485Z,90.75
2023-03-01T23:26:28.475Z,92.95
2023-03-01T23:28:56.210Z,89.93
2023-03-01T23:31:23.356Z,91.72
2023-03-01T23:33:50.203Z,92.68
2023-03-01T23:36:23.047Z,94.47
2023-03-01T23:38:51.462Z,96.72
2023-03-01T23:41:20.286Z,95.53
2023-03-01T23:43:48.208Z,97.50
2023-03-01T23:46:15.784Z,94.18
2023-03-01T23:48:43.087Z,96.25
2023-03-01T23:51:10.392Z,96.43
2023-03-01T23:53:39.525Z,97.45
2023-03-01T23:56:07.269Z,96.85
2023-03-01T23:58:34.066Z,96.47
